Time;durP1;ratioP1;P1;durP2;ratioP2;P2;SDS_P1;SDS_P2;PMS_P1;PMS_P2;Temp;Humidity;BMP_temperature;BMP_pressure;BME280_temperature;BME280_humidity;BME280_pressure;Samples;Min_cycle;Max_cycle;Signal;HPM_P1;HPM_P2
2023/10/13 00:01:18;;;;;;;;;;;;;;;;;;5169258;27;19963;-53
2023/10/13 00:03:44;;;;;;;;;;;;;;;;;;5169723;27;20180;-53
2023/10/13 00:06:10;;;;;;;;;;;;;;;;;;5169796;27;19927;-53
2023/10/13 00:08:36;;;;;;;;;;;;;;;;;;5169220;27;19927;-53
2023/10/13 00:11:02;;;;;;;;;;;;;;;;;;5169549;27;20275;-53
2023/10/13 00:13:28;;;;;;;;;;;;;;;;;;5169228;27;19923;-53
2023/10/13 00:15:57;;;;;;;;;;;;;;;;;;5168495;27;19967;-53
2023/10/13 00:18:22;;;;;;;;;;;;;;;;;;5169371;27;20351;-53
2023/10/13 00:20:49;;;;;;;;;;;;;;;;;;5168747;27;20006;-53
2023/10/13 00:23:15;;;;;;;;;;;;;;;;;;5203548;27;20394;-54
2023/10/13 00:25:49;;;;;;;;;;;;;;;;;;5211345;27;19930;-53
2023/10/13 00:28:23;;;;;;;;;;;;;;;;;;5197381;27;19926;-53
2023/10/13 00:30:51;;;;;;;;;;;;;;;;;;5168739;27;19923;-53
2023/10/13 00:33:19;;;;;;;;;;;;;;;;;;5182306;27;19923;-53
2023/10/13 00:35:47;;;;;;;;;;;;;;;;;;5189320;27;19939;-52
2023/10/13 00:38:12;;;;;;;;;;;;;;;;;;5189061;27;20366;-53
2023/10/13 00:45:56;;;;;;;;;;;;;;;;;;5190644;27;20014;-53
2023/10/13 00:48:24;;;;;;;;;;;;;;;;;;5190538;27;19926;-53
2023/10/13 00:50:50;;;;;;;;;;;;;;;;;;5190764;27;20262;-54
2023/10/13 00:53:15;;;;;;;;;;;;;;;;;;5189843;27;20013;-53
2023/10/13 00:55:41;;;;;;;;;;;;;;;;;;5190136;27;20346;-53
2023/10/13 00:58:07;;;;;;;;;;;;;;;;;;5190008;27;19923;-53
2023/10/13 01:00:46;;;;;;;;;;;;;;;;;;5190164;27;19949;-53
2023/10/13 01:03:12;;;;;;;;;;;;;;;;;;5190739;27;20293;-53
2023/10/13 01:05:39;;;;;;;;;;;;;;;;;;5190792;27;19948;-53
2023/10/13 01:08:04;;;;;;;;;;;;;;;;;;5190501;27;19969;-53
2023/10/13 01:10:32;;;;;;;;;;;;;;;;;;5190716;27;20378;-54
2023/10/13 01:12:59;;;;;;;;;;;;;;;;;;5190488;27;19926;-53
2023/10/13 01:15:29;;;;;;;;;;;;;;;;;;5190082;27;19954;-53
2023/10/13 01:17:56;;;;;;;;;;;;;;;;;;5190125;27;19927;-53
2023/10/13 01:20:25;;;;;;;;;;;;;;;;;;5189168;27;19927;-53
2023/10/13 01:22:57;;;;;;;;;;;;;;;;;;5196875;27;19969;-53
2023/10/13 01:25:25;;;;;;;;;;;;;;;;;;5211673;27;20072;-54
2023/10/13 01:27:51;;;;;;;;;;;;;;;;;;5205284;27;19988;-54
2023/10/13 01:30:16;;;;;;;;;;;;;;;;;;5169571;27;19923;-53
2023/10/13 01:32:46;;;;;;;;;;;;;;;;;;5169374;27;20402;-53
2023/10/13 01:35:11;;;;;;;;;;;;;;;;;;5184630;27;19927;-53
2023/10/13 01:37:36;;;;;;;;;;;;;;;;;;5188903;27;19965;-54
2023/10/13 01:40:03;;;;;;;;;;;;;;;;;;5168930;27;20021;-53
2023/10/13 01:42:29;;;;;;;;;;;;;;;;;;5158346;27;19980;-53
2023/10/13 01:44:58;;;;;;;;;;;;;;;;;;5157590;27;20346;-54
2023/10/13 01:47:23;;;;;;;;;;;;;;;;;;5168584;27;19927;-53
2023/10/13 01:49:50;;;;;;;;;;;;;;;;;;5148501;27;19967;-53
2023/10/13 01:52:15;;;;;;;;;;;;;;;;;;5147829;27;19934;-53
2023/10/13 01:54:43;;;;;;;;;;;;;;;;;;5146857;27;19923;-53
2023/10/13 01:57:13;;;;;;;;;;;;;;;;;;5134294;27;20032;-53
2023/10/13 01:59:43;;;;;;;;;;;;;;;;;;5133676;27;19967;-53
2023/10/13 02:02:12;;;;;;;;;;;;;;;;;;5134423;28;20368;-53
2023/10/13 02:04:42;;;;;;;;;;;;;;;;;;5133993;28;19968;-53
2023/10/13 02:07:08;;;;;;;;;;;;;;;;;;5133788;28;19930;-53
2023/10/13 02:09:36;;;;;;;;;;;;;;;;;;5133425;27;19927;-53
2023/10/13 02:12:02;;;;;;;;;;;;;;;;;;5133275;28;19927;-53
2023/10/13 02:14:27;;;;;;;;;;;;;;;;;;5132611;28;20079;-54
2023/10/13 02:17:12;;;;;;;;;;;;;;;;;;5133370;28;20018;-54
2023/10/13 02:19:40;;;;;;;;;;;;;;;;;;5136759;27;19948;-53
2023/10/13 02:22:08;;;;;;;;;;;;;;;;;;5163229;27;19939;-53
2023/10/13 02:24:34;;;;;;;;;;;;;;;;;;5154344;27;19972;-53
2023/10/13 02:27:04;;;;;;;;;;;;;;;;;;5154634;27;19927;-53
2023/10/13 02:29:30;;;;;;;;;;;;;;;;;;5154079;27;19930;-52
2023/10/13 02:31:56;;;;;;;;;;;;;;;;;;5154230;27;20009;-53
2023/10/13 02:34:23;;;;;;;;;;;;;;;;;;5153637;27;19933;-53
2023/10/13 02:36:49;;;;;;;;;;;;;;;;;;5153378;27;19923;-53
2023/10/13 02:39:16;;;;;;;;;;;;;;;;;;5138279;27;20026;-53
2023/10/13 02:41:47;;;;;;;;;;;;;;;;;;5133660;27;20379;-54
2023/10/13 02:44:20;;;;;;;;;;;;;;;;;;5132337;28;20408;-54
2023/10/13 02:46:50;;;;;;;;;;;;;;;;;;5143859;27;19974;-54
2023/10/13 02:49:19;;;;;;;;;;;;;;;;;;5139113;27;19928;-53
2023/10/13 02:51:44;;;;;;;;;;;;;;;;;;5133575;28;20379;-53
2023/10/13 02:54:11;;;;;;;;;;;;;;;;;;5133331;28;19994;-53
2023/10/13 02:56:36;;;;;;;;;;;;;;;;;;5133139;28;20379;-53
2023/10/13 02:59:05;;;;;;;;;;;;;;;;;;5133275;27;19934;-54
2023/10/13 03:01:33;;;;;;;;;;;;;;;;;;5133687;28;19930;-53
2023/10/13 03:03:59;;;;;;;;;;;;;;;;;;5132861;28;20280;-53
2023/10/13 03:06:32;;;;;;;;;;;;;;;;;;5133337;28;20374;-54
2023/10/13 03:09:00;;;;;;;;;;;;;;;;;;5131869;27;19923;-54
2023/10/13 03:11:25;;;;;;;;;;;;;;;;;;5133206;28;20010;-54
2023/10/13 03:13:52;;;;;;;;;;;;;;;;;;5132008;28;19986;-54
2023/10/13 03:16:19;;;;;;;;;;;;;;;;;;5132037;28;20040;-54
2023/10/13 03:18:53;;;;;;;;;;;;;;;;;;5132451;27;20367;-53
2023/10/13 03:21:29;;;;;;;;;;;;;;;;;;5132443;27;19978;-52
2023/10/13 03:23:55;;;;;;;;;;;;;;;;;;5132689;28;19971;-53
2023/10/13 03:26:20;;;;;;;;;;;;;;;;;;5132955;28;20549;-53
2023/10/13 03:28:51;;;;;;;;;;;;;;;;;;5143555;27;19997;-54
2023/10/13 03:31:18;;;;;;;;;;;;;;;;;;5153800;27;19923;-53
2023/10/13 03:33:46;;;;;;;;;;;;;;;;;;5153459;27;19927;-54
2023/10/13 03:36:31;;;;;;;;;;;;;;;;;;5153350;27;19950;-53
2023/10/13 03:38:56;;;;;;;;;;;;;;;;;;5143066;27;19970;-53
2023/10/13 03:41:24;;;;;;;;;;;;;;;;;;5153797;27;20010;-54
2023/10/13 03:44:07;;;;;;;;;;;;;;;;;;5152905;27;19926;-53
2023/10/13 03:46:33;;;;;;;;;;;;;;;;;;5153197;27;19930;-53
2023/10/13 03:49:01;;;;;;;;;;;;;;;;;;5152025;27;19927;-53
2023/10/13 03:51:31;;;;;;;;;;;;;;;;;;5152931;27;19923;-53
2023/10/13 03:53:56;;;;;;;;;;;;;;;;;;5152477;27;19923;-54
2023/10/13 03:56:38;;;;;;;;;;;;;;;;;;5152377;27;19934;-53
2023/10/13 03:59:06;;;;;;;;;;;;;;;;;;5139121;27;19986;-53
2023/10/13 04:01:34;;;;;;;;;;;;;;;;;;5132280;28;19923;-53
2023/10/13 04:04:03;;;;;;;;;;;;;;;;;;5131407;28;20423;-54
2023/10/13 04:17:26;;;;;;;;;;;;;;;;;;5174969;27;19982;-53
2023/10/13 04:33:35;;;;;;;;;;;;;;;;;;5174961;27;19929;-53
2023/10/13 04:36:01;;;;;;;;;;;;;;;;;;5190084;27;19927;-53
2023/10/13 04:38:34;;;;;;;;;;;;;;;;;;5189902;27;20256;-53
2023/10/13 04:41:01;;;;;;;;;;;;;;;;;;5189003;27;19958;-53
2023/10/13 04:43:54;;;;;;;;;;;;;;;;;;5171285;27;20375;-54
2023/10/13 04:46:35;;;;;;;;;;;;;;;;;;5168431;27;19953;-53
2023/10/13 04:49:00;;;;;;;;;;;;;;;;;;5149431;27;19957;-53
2023/10/13 04:54:25;;;;;;;;;;;;;;;;;;5168302;27;19926;-53
2023/10/13 04:57:22;;;;;;;;;;;;;;;;;;5169022;27;19974;-54
2023/10/13 04:59:37;;;;;;;;;;;;;;;;;;5138322;27;19923;-54
2023/10/13 06:29:48;;;;;;;;;;;;;;;;;;5153199;27;19931;-53
2023/10/13 06:32:16;;;;;;;;;;;;;;;;;;5168882;27;19927;-54
2023/10/13 06:34:44;;;;;;;;;;;;;;;;;;5168684;27;19934;-54
2023/10/13 06:37:22;;;;;;;;;;;;;;;;;;5168616;27;20292;-53
2023/10/13 06:39:48;;;;;;;;;;;;;;;;;;5168448;27;19930;-53
2023/10/13 06:42:13;;;;;;;;;;;;;;;;;;5160145;27;20014;-54
2023/10/13 06:44:39;;;;;;;;;;;;;;;;;;5149188;27;20336;-54
2023/10/13 06:47:05;;;;;;;;;;;;;;;;;;5148139;27;19927;-53
2023/10/13 06:49:38;;;;;;;;;;;;;;;;;;5130607;27;19931;-53
2023/10/13 06:52:06;;;;;;;;;;;;;;;;;;5126747;27;19923;-53
2023/10/13 06:54:33;;;;;;;;;;;;;;;;;;5156412;27;20358;-54
2023/10/13 06:56:59;;;;;;;;;;;;;;;;;;5168079;27;20279;-54
2023/10/13 06:59:26;;;;;;;;;;;;;;;;;;5151972;27;19923;-54
2023/10/13 07:01:52;;;;;;;;;;;;;;;;;;5148161;27;19963;-54
2023/10/13 07:04:18;;;;;;;;;;;;;;;;;;5141286;27;19992;-54
2023/10/13 07:06:48;;;;;;;;;;;;;;;;;;5133845;28;19924;-54
2023/10/13 07:09:39;;;;;;;;;;;;;;;;;;5133425;28;19930;-53
2023/10/13 07:12:01;;;;;;;;;;;;;;;;;;5118091;28;19932;-53
2023/10/13 07:14:26;;;;;;;;;;;;;;;;;;5133482;28;19927;-53
2023/10/13 07:16:52;;;;;;;;;;;;;;;;;;5132955;28;20078;-54
2023/10/13 07:19:17;;;;;;;;;;;;;;;;;;5135879;27;20008;-53
2023/10/13 07:21:45;;;;;;;;;;;;;;;;;;5133744;28;19935;-53
2023/10/13 07:24:11;;;;;;;;;;;;;;;;;;5133850;28;19927;-54
2023/10/13 07:26:45;;;;;;;;;;;;;;;;;;5133920;28;19927;-54
2023/10/13 07:29:10;;;;;;;;;;;;;;;;;;5133911;28;19934;-54
2023/10/13 07:31:37;;;;;;;;;;;;;;;;;;5133934;28;20018;-54
2023/10/13 07:34:12;;;;;;;;;;;;;;;;;;5133582;28;20272;-53
2023/10/13 07:36:43;;;;;;;;;;;;;;;;;;5133212;28;19962;-53
2023/10/13 07:39:20;;;;;;;;;;;;;;;;;;5132802;28;19930;-53
2023/10/13 07:42:05;;;;;;;;;;;;;;;;;;5133717;27;20006;-54
2023/10/13 07:44:33;;;;;;;;;;;;;;;;;;5134851;27;19966;-54
2023/10/13 07:46:58;;;;;;;;;;;;;;;;;;5133779;27;19923;-53
2023/10/13 07:49:30;;;;;;;;;;;;;;;;;;5117098;28;20349;-53
2023/10/13 07:51:57;;;;;;;;;;;;;;;;;;5112606;28;19924;-53
2023/10/13 07:54:22;;;;;;;;;;;;;;;;;;5112719;28;19924;-53
2023/10/13 07:56:48;;;;;;;;;;;;;;;;;;5141079;27;19967;-53
2023/10/13 07:59:16;;;;;;;;;;;;;;;;;;5139010;27;20003;-53
2023/10/13 08:01:43;;;;;;;;;;;;;;;;;;5133236;28;19927;-53
2023/10/13 08:04:11;;;;;;;;;;;;;;;;;;5133506;28;19974;-53
2023/10/13 08:06:37;;;;;;;;;;;;;;;;;;5133446;28;19939;-53
2023/10/13 08:09:40;;;;;;;;;;;;;;;;;;5132917;28;19923;-54
2023/10/13 08:11:48;;;;;;;;;;;;;;;;;;5117719;28;19927;-54
2023/10/13 08:14:44;;;;;;;;;;;;;;;;;;5132771;28;20346;-54
2023/10/13 08:17:12;;;;;;;;;;;;;;;;;;5109905;28;19934;-53
2023/10/13 08:19:44;;;;;;;;;;;;;;;;;;5132458;27;20363;-54
2023/10/13 08:22:25;;;;;;;;;;;;;;;;;;5133458;28;19927;-54
2023/10/13 08:28:04;;;;;;;;;;;;;;;;;;5132994;28;20005;-53
2023/10/13 08:30:51;;;;;;;;;;;;;;;;;;5117612;28;19923;-53
2023/10/13 08:32:58;;;;;;;;;;;;;;;;;;5117499;28;20260;-54
2023/10/13 08:35:33;;;;;;;;;;;;;;;;;;5132777;28;19963;-53
2023/10/13 08:37:59;;;;;;;;;;;;;;;;;;5132078;28;20777;-54
2023/10/13 08:41:28;;;;;;;;;;;;;;;;;;5133002;28;19930;-54
2023/10/13 08:43:16;;;;;;;;;;;;;;;;;;5096052;28;19924;-53
2023/10/13 08:50:48;;;;;;;;;;;;;;;;;;5191808;27;20022;-53
2023/10/13 08:53:51;;;;;;;;;;;;;;;;;;5191091;27;19934;-53
2023/10/13 08:56:05;;;;;;;;;;;;;;;;;;5174934;27;19927;-54
2023/10/13 09:06:57;;;;;;;;;;;;;;;;;;5175450;27;20013;-54
2023/10/13 09:09:27;;;;;;;;;;;;;;;;;;5190308;27;19927;-54
2023/10/13 09:12:04;;;;;;;;;;;;;;;;;;5190966;27;19933;-54
2023/10/13 09:14:33;;;;;;;;;;;;;;;;;;5190465;27;19930;-54
2023/10/13 09:17:07;;;;;;;;;;;;;;;;;;5189478;27;20367;-54
2023/10/13 09:19:37;;;;;;;;;;;;;;;;;;5173479;27;19923;-54
2023/10/13 09:22:02;;;;;;;;;;;;;;;;;;5169994;27;19927;-53
2023/10/13 09:24:29;;;;;;;;;;;;;;;;;;5169856;27;19931;-53
2023/10/13 09:26:56;;;;;;;;;;;;;;;;;;5169379;27;20288;-53
2023/10/13 09:29:21;;;;;;;;;;;;;;;;;;5169205;27;20271;-54
2023/10/13 09:31:50;;;;;;;;;;;;;;;;;;5169738;27;19945;-53
2023/10/13 09:34:16;;;;;;;;;;;;;;;;;;5169574;27;19965;-54
2023/10/13 09:36:41;;;;;;;;;;;;;;;;;;5168364;27;20330;-54
2023/10/13 09:39:12;;;;;;;;;;;;;;;;;;5168023;27;19930;-53
2023/10/13 09:41:37;;;;;;;;;;;;;;;;;;5165194;27;19959;-54
2023/10/13 09:44:03;;;;;;;;;;;;;;;;;;5147311;27;20026;-53
2023/10/13 09:46:29;;;;;;;;;;;;;;;;;;5148118;27;19930;-54
2023/10/13 09:49:14;;;;;;;;;;;;;;;;;;5160657;27;19974;-54
2023/10/13 09:51:44;;;;;;;;;;;;;;;;;;5168948;27;19930;-52
2023/10/13 09:54:10;;;;;;;;;;;;;;;;;;5168672;27;19977;-53
2023/10/13 09:56:56;;;;;;;;;;;;;;;;;;5152767;27;20397;-53
2023/10/13 09:59:22;;;;;;;;;;;;;;;;;;5167251;27;19923;-54
2023/10/13 10:01:51;;;;;;;;;;;;;;;;;;5156695;27;20208;-54
2023/10/13 10:04:18;;;;;;;;;;;;;;;;;;5154562;27;20288;-54
2023/10/13 10:06:45;;;;;;;;;;;;;;;;;;5155278;27;19923;-54
2023/10/13 10:09:12;;;;;;;;;;;;;;;;;;5154325;27;20298;-54
2023/10/13 10:11:40;;;;;;;;;;;;;;;;;;5154799;27;19927;-53
2023/10/13 10:14:08;;;;;;;;;;;;;;;;;;5154595;27;20345;-54
2023/10/13 10:16:36;;;;;;;;;;;;;;;;;;5148222;27;19923;-53
2023/10/13 10:19:02;;;;;;;;;;;;;;;;;;5146632;27;19923;-53
2023/10/13 10:21:30;;;;;;;;;;;;;;;;;;5139070;27;19931;-54
2023/10/13 10:23:55;;;;;;;;;;;;;;;;;;5153938;27;20287;-54
2023/10/13 10:26:21;;;;;;;;;;;;;;;;;;5154131;27;19923;-54
2023/10/13 10:28:46;;;;;;;;;;;;;;;;;;5142848;27;19923;-53
2023/10/13 10:31:14;;;;;;;;;;;;;;;;;;5133500;28;19924;-53
2023/10/13 10:33:39;;;;;;;;;;;;;;;;;;5133225;28;20040;-53
2023/10/13 10:36:05;;;;;;;;;;;;;;;;;;5132859;28;19924;-53
2023/10/13 10:40:58;;;;;;;;;;;;;;;;;;5133001;28;19932;-53
2023/10/13 10:43:26;;;;;;;;;;;;;;;;;;5133110;27;19923;-43
2023/10/13 10:45:59;;;;;;;;;;;;;;;;;;5132890;28;19927;-42
2023/10/13 10:48:31;;;;;;;;;;;;;;;;;;5132547;27;20378;-44
2023/10/13 10:50:58;;;;;;;;;;;;;;;;;;5149709;27;19927;-44
2023/10/13 10:53:33;;;;;;;;;;;;;;;;;;5153069;27;19923;-43
2023/10/13 10:56:02;;;;;;;;;;;;;;;;;;5153472;27;19986;-45
2023/10/13 10:58:28;;;;;;;;;;;;;;;;;;5152394;27;19927;-43
2023/10/13 11:01:01;;;;;;;;;;;;;;;;;;5151501;27;19923;-42
2023/10/13 11:03:27;;;;;;;;;;;;;;;;;;5153105;27;20256;-44
2023/10/13 11:05:52;;;;;;;;;;;;;;;;;;5152906;27;19934;-42
2023/10/13 11:08:18;;;;;;;;;;;;;;;;;;5146111;27;19981;-42
2023/10/13 11:10:43;;;;;;;;;;;;;;;;;;5142650;27;19923;-43
2023/10/13 11:13:13;;;;;;;;;;;;;;;;;;5151811;27;19937;-41
2023/10/13 11:15:39;;;;;;;;;;;;;;;;;;5149047;27;19934;-44
2023/10/13 11:18:05;;;;;;;;;;;;;;;;;;5136874;27;20368;-42
2023/10/13 11:20:33;;;;;;;;;;;;;;;;;;5153316;27;20013;-41
2023/10/13 11:22:59;;;;;;;;;;;;;;;;;;5152769;27;20290;-45
2023/10/13 11:25:43;;;;;;;;;;;;;;;;;;5152784;27;20031;-44
2023/10/13 11:28:08;;;;;;;;;;;;;;;;;;5147415;27;19934;-42
2023/10/13 11:33:12;;;;;;;;;;;;;;;;;;5191031;27;20007;-42
2023/10/13 11:38:27;;;;;;;;;;;;;;;;;;5190164;27;20022;-43
2023/10/13 11:41:11;;;;;;;;;;;;;;;;;;5190797;27;20359;-42
2023/10/13 11:43:52;;;;;;;;;;;;;;;;;;5168811;27;20259;-42
2023/10/13 11:46:55;;;;;;;;;;;;;;;;;;5169384;27;19937;-42
2023/10/13 11:49:17;;;;;;;;;;;;;;;;;;5153267;27;20350;-43
2023/10/13 11:51:45;;;;;;;;;;;;;;;;;;5169543;27;19923;-42
2023/10/13 11:54:11;;;;;;;;;;;;;;;;;;5169686;27;19931;-42
2023/10/13 11:56:38;;;;;;;;;;;;;;;;;;5168778;27;20063;-43
2023/10/13 11:59:05;;;;;;;;;;;;;;;;;;5168242;27;19977;-45
2023/10/13 12:07:14;;;;;;;;;;;;;;;;;;5153894;27;20082;-44
2023/10/13 12:12:23;;;;;;;;;;;;;;;;;;5158823;27;19923;-43
2023/10/13 12:14:55;;;;;;;;;;;;;;;;;;5142522;27;19972;-45
2023/10/13 12:17:24;;;;;;;;;;;;;;;;;;5144781;27;19923;-42
2023/10/13 12:19:51;;;;;;;;;;;;;;;;;;5165007;27;20508;-44
2023/10/13 12:22:25;;;;;;;;;;;;;;;;;;5148230;27;20382;-43
2023/10/13 12:24:53;;;;;;;;;;;;;;;;;;5147182;27;20027;-41
2023/10/13 12:27:18;;;;;;;;;;;;;;;;;;5148291;27;19970;-44
2023/10/13 12:29:46;;;;;;;;;;;;;;;;;;5167248;27;19933;-42
2023/10/13 12:32:12;;;;;;;;;;;;;;;;;;5169446;27;20371;-44
2023/10/13 12:38:04;;;;;;;;;;;;;;;;;;5152850;27;19945;-46
2023/10/13 12:51:50;;;;;;;;;;;;;;;;;;5139731;27;19931;-43
2023/10/13 12:54:04;;;;;;;;;;;;;;;;;;5139633;27;19923;-44
2023/10/13 12:56:30;;;;;;;;;;;;;;;;;;5154774;27;19978;-43
2023/10/13 12:58:55;;;;;;;;;;;;;;;;;;5154269;27;19923;-43
2023/10/13 13:01:21;;;;;;;;;;;;;;;;;;5155426;27;19989;-44
2023/10/13 13:03:46;;;;;;;;;;;;;;;;;;5154891;27;19974;-43
2023/10/13 13:06:12;;;;;;;;;;;;;;;;;;5155116;27;20013;-41
2023/10/13 13:08:44;;;;;;;;;;;;;;;;;;5154212;27;20435;-45
2023/10/13 13:11:09;;;;;;;;;;;;;;;;;;5154475;27;19959;-43
2023/10/13 13:13:34;;;;;;;;;;;;;;;;;;5149400;27;20030;-44
2023/10/13 13:16:00;;;;;;;;;;;;;;;;;;5132632;27;20064;-43
2023/10/13 13:18:26;;;;;;;;;;;;;;;;;;5140497;27;20335;-43
2023/10/13 13:20:54;;;;;;;;;;;;;;;;;;5154402;27;20019;-44
2023/10/13 13:23:21;;;;;;;;;;;;;;;;;;5154343;27;19955;-43
2023/10/13 13:25:47;;;;;;;;;;;;;;;;;;5152681;27;19957;-43
2023/10/13 13:28:13;;;;;;;;;;;;;;;;;;5138491;27;20299;-44
2023/10/13 13:30:38;;;;;;;;;;;;;;;;;;5154334;27;20356;-43
2023/10/13 13:33:10;;;;;;;;;;;;;;;;;;5154180;27;19923;-44
2023/10/13 13:35:36;;;;;;;;;;;;;;;;;;5154217;27;19923;-43
2023/10/13 13:38:09;;;;;;;;;;;;;;;;;;5152621;27;19927;-42
2023/10/13 13:40:35;;;;;;;;;;;;;;;;;;5153855;27;19923;-45
2023/10/13 13:43:00;;;;;;;;;;;;;;;;;;5153717;27;20017;-41
2023/10/13 13:45:27;;;;;;;;;;;;;;;;;;5153691;27;20274;-43
2023/10/13 13:47:53;;;;;;;;;;;;;;;;;;5153404;27;19930;-44
2023/10/13 13:50:23;;;;;;;;;;;;;;;;;;5154203;27;19923;-44
2023/10/13 13:52:49;;;;;;;;;;;;;;;;;;5154373;27;20396;-42
2023/10/13 13:55:17;;;;;;;;;;;;;;;;;;5154541;27;20464;-43
2023/10/13 13:57:43;;;;;;;;;;;;;;;;;;5153423;27;20367;-43
2023/10/13 14:00:08;;;;;;;;;;;;;;;;;;5153016;27;19923;-42
2023/10/13 14:02:35;;;;;;;;;;;;;;;;;;5154278;27;19931;-41
2023/10/13 14:05:02;;;;;;;;;;;;;;;;;;5154236;27;19931;-42
2023/10/13 14:07:32;;;;;;;;;;;;;;;;;;5154120;27;19926;-41
2023/10/13 14:10:05;;;;;;;;;;;;;;;;;;5153488;27;20378;-44
2023/10/13 14:12:47;;;;;;;;;;;;;;;;;;5153690;27;20291;-43
2023/10/13 14:15:23;;;;;;;;;;;;;;;;;;5132560;27;19966;-42
2023/10/13 14:17:49;;;;;;;;;;;;;;;;;;5134532;27;19979;-42
2023/10/13 14:20:18;;;;;;;;;;;;;;;;;;5153625;27;19974;-44
2023/10/13 14:22:47;;;;;;;;;;;;;;;;;;5153701;27;19945;-43
2023/10/13 14:25:14;;;;;;;;;;;;;;;;;;5153906;27;19975;-43
2023/10/13 14:27:39;;;;;;;;;;;;;;;;;;5150073;27;19931;-41
2023/10/13 14:30:05;;;;;;;;;;;;;;;;;;5132149;28;19923;-45
2023/10/13 14:32:31;;;;;;;;;;;;;;;;;;5133040;28;20025;-42
2023/10/13 14:34:56;;;;;;;;;;;;;;;;;;5132920;28;19924;-45
2023/10/13 14:37:37;;;;;;;;;;;;;;;;;;5132185;28;19927;-43
2023/10/13 14:40:02;;;;;;;;;;;;;;;;;;5111465;28;19932;-44
2023/10/13 14:42:28;;;;;;;;;;;;;;;;;;5111545;28;19924;-42
2023/10/13 14:44:56;;;;;;;;;;;;;;;;;;5111201;28;19955;-43
2023/10/13 14:47:24;;;;;;;;;;;;;;;;;;5112221;28;19939;-44
2023/10/13 14:49:50;;;;;;;;;;;;;;;;;;5151698;27;20268;-43
2023/10/13 14:52:17;;;;;;;;;;;;;;;;;;5152991;27;19930;-46
2023/10/13 14:54:43;;;;;;;;;;;;;;;;;;5153298;27;19927;-45
2023/10/13 14:57:08;;;;;;;;;;;;;;;;;;5152579;27;20014;-42
2023/10/13 14:59:38;;;;;;;;;;;;;;;;;;5152137;27;20522;-42
2023/10/13 15:02:03;;;;;;;;;;;;;;;;;;5152990;27;20396;-44
2023/10/13 15:04:32;;;;;;;;;;;;;;;;;;5152809;27;19959;-43
2023/10/13 15:06:58;;;;;;;;;;;;;;;;;;5153086;27;20022;-45
2023/10/13 15:09:23;;;;;;;;;;;;;;;;;;5152481;27;19929;-43
2023/10/13 15:11:48;;;;;;;;;;;;;;;;;;5152495;27;20014;-41
2023/10/13 15:14:15;;;;;;;;;;;;;;;;;;5131788;27;20179;-42
2023/10/13 15:16:42;;;;;;;;;;;;;;;;;;5148697;27;19997;-41
2023/10/13 15:19:09;;;;;;;;;;;;;;;;;;5144554;27;19930;-47
2023/10/13 15:21:35;;;;;;;;;;;;;;;;;;5152165;27;20226;-43
2023/10/13 15:24:04;;;;;;;;;;;;;;;;;;5151822;27;19949;-43
2023/10/13 15:26:29;;;;;;;;;;;;;;;;;;5152288;27;19977;-43
2023/10/13 15:28:56;;;;;;;;;;;;;;;;;;5152222;27;20366;-42
2023/10/13 15:34:13;;;;;;;;;;;;;;;;;;5191115;27;20018;-41
2023/10/13 15:36:39;;;;;;;;;;;;;;;;;;5190351;27;19922;-41
2023/10/13 15:39:08;;;;;;;;;;;;;;;;;;5189416;27;19997;-42
2023/10/13 15:41:33;;;;;;;;;;;;;;;;;;5187876;27;19970;-41
2023/10/13 15:43:58;;;;;;;;;;;;;;;;;;5168790;27;19930;-44
2023/10/13 15:46:24;;;;;;;;;;;;;;;;;;5169983;27;19962;-41
2023/10/13 15:49:12;;;;;;;;;;;;;;;;;;5154502;27;19924;-42
2023/10/13 15:51:40;;;;;;;;;;;;;;;;;;5170176;27;19927;-42
2023/10/13 15:54:14;;;;;;;;;;;;;;;;;;5169855;27;19958;-44
2023/10/13 15:56:43;;;;;;;;;;;;;;;;;;5170052;27;19923;-45
2023/10/13 15:59:08;;;;;;;;;;;;;;;;;;5169140;27;20055;-43
2023/10/13 16:01:34;;;;;;;;;;;;;;;;;;5169430;27;20075;-45
2023/10/13 16:03:59;;;;;;;;;;;;;;;;;;5169392;27;19930;-41
2023/10/13 16:06:25;;;;;;;;;;;;;;;;;;5169745;27;20054;-43
2023/10/13 16:08:51;;;;;;;;;;;;;;;;;;5169082;27;20022;-41
2023/10/13 16:11:17;;;;;;;;;;;;;;;;;;5169665;27;20366;-41
2023/10/13 16:13:43;;;;;;;;;;;;;;;;;;5168808;27;19970;-44
2023/10/13 16:16:08;;;;;;;;;;;;;;;;;;5190083;27;19970;-43
2023/10/13 16:18:36;;;;;;;;;;;;;;;;;;5172516;27;20363;-42
2023/10/13 16:21:03;;;;;;;;;;;;;;;;;;5169207;27;20391;-42
2023/10/13 16:23:28;;;;;;;;;;;;;;;;;;5168967;27;19930;-43
2023/10/13 16:25:56;;;;;;;;;;;;;;;;;;5169494;27;20034;-41
2023/10/13 16:28:22;;;;;;;;;;;;;;;;;;5169025;27;19981;-42
2023/10/13 16:30:48;;;;;;;;;;;;;;;;;;5169202;27;19923;-41
2023/10/13 16:33:14;;;;;;;;;;;;;;;;;;5168393;27;19927;-42
2023/10/13 16:35:39;;;;;;;;;;;;;;;;;;5169063;27;19930;-44
2023/10/13 16:38:06;;;;;;;;;;;;;;;;;;5162811;27;20374;-43
2023/10/13 16:40:31;;;;;;;;;;;;;;;;;;5147675;27;19937;-43
2023/10/13 16:42:57;;;;;;;;;;;;;;;;;;5147576;27;19963;-42
2023/10/13 16:45:23;;;;;;;;;;;;;;;;;;5135383;27;20008;-41
2023/10/13 16:47:49;;;;;;;;;;;;;;;;;;5133840;27;20283;-44
2023/10/13 16:50:14;;;;;;;;;;;;;;;;;;5133767;28;20014;-41
2023/10/13 16:52:40;;;;;;;;;;;;;;;;;;5133403;28;19962;-41
2023/10/13 16:55:05;;;;;;;;;;;;;;;;;;5133553;28;19927;-42
2023/10/13 16:57:31;;;;;;;;;;;;;;;;;;5132961;27;19978;-42
2023/10/13 16:59:56;;;;;;;;;;;;;;;;;;5132797;28;19923;-44
2023/10/13 17:02:22;;;;;;;;;;;;;;;;;;5133414;28;20321;-41
2023/10/13 17:04:47;;;;;;;;;;;;;;;;;;5133350;28;20407;-44
2023/10/13 17:07:14;;;;;;;;;;;;;;;;;;5133532;28;20170;-41
2023/10/13 17:09:39;;;;;;;;;;;;;;;;;;5132999;27;19954;-44
2023/10/13 17:12:04;;;;;;;;;;;;;;;;;;5133590;28;19969;-44
2023/10/13 17:14:30;;;;;;;;;;;;;;;;;;5132619;27;19927;-41
2023/10/13 17:16:57;;;;;;;;;;;;;;;;;;5133462;28;19974;-42
2023/10/13 17:19:25;;;;;;;;;;;;;;;;;;5132383;27;19935;-41
2023/10/13 17:21:50;;;;;;;;;;;;;;;;;;5149893;27;19923;-44
2023/10/13 17:24:16;;;;;;;;;;;;;;;;;;5153843;27;19931;-42
2023/10/13 17:26:41;;;;;;;;;;;;;;;;;;5153471;27;19947;-42
2023/10/13 17:29:09;;;;;;;;;;;;;;;;;;5139701;27;20017;-43
2023/10/13 17:31:35;;;;;;;;;;;;;;;;;;5133135;28;19938;-41
2023/10/13 17:34:02;;;;;;;;;;;;;;;;;;5144495;27;19976;-42
2023/10/13 17:36:28;;;;;;;;;;;;;;;;;;5153653;27;19923;-41
2023/10/13 17:38:53;;;;;;;;;;;;;;;;;;5140846;27;20381;-44
2023/10/13 17:41:20;;;;;;;;;;;;;;;;;;5132971;28;19924;-41
2023/10/13 17:43:46;;;;;;;;;;;;;;;;;;5132652;28;19931;-43
2023/10/13 17:46:12;;;;;;;;;;;;;;;;;;5133086;28;20386;-43
2023/10/13 17:48:37;;;;;;;;;;;;;;;;;;5132961;27;19929;-42
2023/10/13 17:51:04;;;;;;;;;;;;;;;;;;5132970;28;19924;-42
2023/10/13 17:53:34;;;;;;;;;;;;;;;;;;5133121;28;19924;-41
2023/10/13 17:56:00;;;;;;;;;;;;;;;;;;5132126;27;19923;-43
2023/10/13 17:58:25;;;;;;;;;;;;;;;;;;5131969;27;19961;-42
2023/10/13 18:00:50;;;;;;;;;;;;;;;;;;5132545;28;20006;-42
2023/10/13 18:03:16;;;;;;;;;;;;;;;;;;5132492;28;20132;-44
2023/10/13 18:05:42;;;;;;;;;;;;;;;;;;5132832;28;20346;-41
2023/10/13 18:08:08;;;;;;;;;;;;;;;;;;5132251;27;19947;-44
2023/10/13 18:10:34;;;;;;;;;;;;;;;;;;5132461;28;20328;-43
2023/10/13 18:13:00;;;;;;;;;;;;;;;;;;5153320;27;19958;-43
2023/10/13 18:15:26;;;;;;;;;;;;;;;;;;5173964;27;20281;-42
2023/10/13 18:17:53;;;;;;;;;;;;;;;;;;5170408;27;19954;-41
2023/10/13 18:20:20;;;;;;;;;;;;;;;;;;5152610;27;19931;-41
2023/10/13 18:22:46;;;;;;;;;;;;;;;;;;5152914;27;19930;-43
2023/10/13 18:25:12;;;;;;;;;;;;;;;;;;5153493;27;20177;-43
2023/10/13 18:27:38;;;;;;;;;;;;;;;;;;5153037;27;19970;-46
2023/10/13 18:30:03;;;;;;;;;;;;;;;;;;5152678;27;19958;-42
2023/10/13 18:32:29;;;;;;;;;;;;;;;;;;5152826;27;19923;-43
2023/10/13 18:34:54;;;;;;;;;;;;;;;;;;5152864;27;19930;-43
2023/10/13 18:37:20;;;;;;;;;;;;;;;;;;5151989;27;20018;-44
2023/10/13 18:39:47;;;;;;;;;;;;;;;;;;5132303;27;19978;-42
2023/10/13 18:42:13;;;;;;;;;;;;;;;;;;5132097;28;20356;-43
2023/10/13 18:44:38;;;;;;;;;;;;;;;;;;5131570;28;20015;-44
2023/10/13 18:47:08;;;;;;;;;;;;;;;;;;5132448;28;19982;-42
2023/10/13 18:49:36;;;;;;;;;;;;;;;;;;5131963;27;20424;-43
2023/10/13 18:52:02;;;;;;;;;;;;;;;;;;5132079;28;19992;-42
2023/10/13 18:54:27;;;;;;;;;;;;;;;;;;5132256;28;20395;-42
2023/10/13 18:56:54;;;;;;;;;;;;;;;;;;5131319;28;19972;-42
2023/10/13 18:59:19;;;;;;;;;;;;;;;;;;5130895;27;19966;-42
2023/10/13 19:01:46;;;;;;;;;;;;;;;;;;5131566;28;19934;-43
2023/10/13 19:04:12;;;;;;;;;;;;;;;;;;5131825;28;19923;-43
2023/10/13 19:06:38;;;;;;;;;;;;;;;;;;5131535;27;19976;-44
2023/10/13 19:09:04;;;;;;;;;;;;;;;;;;5131321;27;20018;-43
2023/10/13 19:11:29;;;;;;;;;;;;;;;;;;5133905;27;19978;-43
2023/10/13 19:13:58;;;;;;;;;;;;;;;;;;5151916;27;20029;-44
2023/10/13 19:16:25;;;;;;;;;;;;;;;;;;5152173;27;19923;-42
2023/10/13 19:18:51;;;;;;;;;;;;;;;;;;5151753;27;20327;-45
2023/10/13 19:21:17;;;;;;;;;;;;;;;;;;5152120;27;20422;-45
2023/10/13 19:23:43;;;;;;;;;;;;;;;;;;5152568;27;19923;-43
2023/10/13 19:26:11;;;;;;;;;;;;;;;;;;5152106;27;19923;-41
2023/10/13 19:28:37;;;;;;;;;;;;;;;;;;5152009;27;19985;-43
2023/10/13 19:31:03;;;;;;;;;;;;;;;;;;5152520;27;19970;-43
2023/10/13 19:33:31;;;;;;;;;;;;;;;;;;5151730;27;20017;-42
2023/10/13 19:35:56;;;;;;;;;;;;;;;;;;5151764;27;19927;-41
2023/10/13 19:38:22;;;;;;;;;;;;;;;;;;5149457;27;20363;-43
2023/10/13 19:40:47;;;;;;;;;;;;;;;;;;5151218;27;20038;-44
2023/10/13 19:43:12;;;;;;;;;;;;;;;;;;5151619;27;20010;-42